Ocean Springs, Mississippi
Current Conditions -  °F | °C
As of 3:58 PM on Thursday 27 Nov 2014 (Local Time) from KBIX Reporting Station
Clear Clear  
Wind Chill: 58°   Ceiling: Unl
Heat Index: 58°   Visibility: 10mi
Dew Point: 31°   Wind: 7mph
Humidity: 37%   Direction: NA
Pressure: 30.38"   Gusts: NA
Location:  30.42°N, 88.81°W
Report Text: KBIX 272158Z AUTO VRB06KT 10SM CLR 14/00 A3038 RMK AO2 SLP291 T01421004
Loading
Personal Weather Stations






























Interactive Weather Map New forecast layout! Learn more

10-Day Weather Forecast

Advertisements
Track Severe Weather on mobile